createdAt,value
2022-12-08T00:01:32.820Z,100.00
2022-12-08T00:04:02.171Z,100.00
2022-12-08T00:06:49.985Z,100.00
2022-12-08T00:09:22.605Z,100.00
2022-12-08T00:11:52.414Z,100.00
2022-12-08T00:14:23.196Z,100.00
2022-12-08T00:16:50.871Z,100.00
2022-12-08T00:19:18.636Z,100.00
2022-12-08T00:21:46.472Z,100.00
2022-12-08T00:24:14.121Z,100.00
2022-12-08T00:26:41.693Z,100.00
2022-12-08T00:29:14.475Z,100.00
2022-12-08T00:31:45.033Z,100.00
2022-12-08T00:34:14.249Z,100.00
2022-12-08T00:36:42.957Z,100.00
2022-12-08T00:39:13.020Z,100.00
2022-12-08T00:41:59.921Z,100.00
2022-12-08T00:44:27.761Z,100.00
2022-12-08T00:46:56.080Z,100.00
2022-12-08T00:49:23.956Z,100.00
2022-12-08T00:51:51.656Z,100.00
2022-12-08T00:54:19.744Z,100.00
2022-12-08T00:56:47.239Z,100.00
2022-12-08T00:59:15.216Z,100.00
2022-12-08T01:01:45.606Z,100.00
2022-12-08T01:04:16.186Z,100.00
2022-12-08T01:06:44.448Z,100.00
2022-12-08T01:09:13.499Z,100.00
2022-12-08T01:11:41.496Z,100.00
2022-12-08T01:14:09.229Z,100.00
2022-12-08T01:16:37.195Z,100.00
2022-12-08T01:19:04.706Z,100.00
2022-12-08T01:21:32.736Z,100.00
2022-12-08T01:24:01.052Z,100.00
2022-12-08T01:26:28.534Z,100.00
2022-12-08T01:28:56.328Z,100.00
2022-12-08T01:31:24.596Z,100.00
2022-12-08T01:33:52.183Z,100.00
2022-12-08T01:36:24.345Z,100.00
2022-12-08T01:38:52.905Z,100.00
2022-12-08T01:41:23.168Z,100.00
2022-12-08T01:43:56.305Z,100.00
2022-12-08T01:46:24.820Z,100.00
2022-12-08T01:48:57.284Z,100.00
2022-12-08T01:51:25.913Z,100.00
2022-12-08T01:53:53.918Z,100.00
2022-12-08T01:56:29.223Z,100.00
2022-12-08T01:58:57.335Z,100.00
2022-12-08T02:01:24.929Z,100.00
2022-12-08T02:03:59.839Z,100.00
2022-12-08T02:06:33.780Z,100.00
2022-12-08T02:09:03.335Z,100.00
2022-12-08T02:11:30.901Z,100.00
2022-12-08T02:14:00.932Z,100.00
2022-12-08T02:16:56.456Z,100.00
2022-12-08T02:19:32.948Z,100.00
2022-12-08T02:22:20.294Z,100.00
2022-12-08T02:25:09.887Z,100.00
2022-12-08T02:28:13.579Z,100.00
2022-12-08T02:31:09.431Z,100.00
2022-12-08T02:33:52.252Z,100.00
2022-12-08T02:36:32.021Z,100.00
2022-12-08T02:39:08.944Z,100.00
2022-12-08T02:41:51.928Z,100.00
2022-12-08T02:44:41.673Z,100.00
2022-12-08T02:47:14.232Z,100.00
2022-12-08T02:49:42.241Z,100.00
2022-12-08T02:52:12.719Z,100.00
2022-12-08T02:54:43.552Z,100.00
2022-12-08T02:57:23.127Z,100.00
2022-12-08T03:00:07.027Z,100.00
2022-12-08T03:03:06.904Z,100.00
2022-12-08T03:06:02.232Z,100.00
2022-12-08T03:08:51.197Z,100.00
2022-12-08T03:11:38.294Z,100.00
2022-12-08T03:14:08.887Z,100.00
2022-12-08T03:16:40.348Z,100.00
2022-12-08T03:19:19.935Z,100.00
2022-12-08T03:21:53.652Z,100.00
2022-12-08T03:24:23.309Z,100.00
2022-12-08T03:27:03.984Z,100.00
2022-12-08T03:29:32.751Z,100.00
2022-12-08T03:32:09.128Z,100.00
2022-12-08T03:34:40.236Z,100.00
2022-12-08T03:37:07.921Z,100.00
2022-12-08T03:39:36.776Z,100.00
2022-12-08T03:42:04.585Z,100.00
2022-12-08T03:44:32.076Z,100.00
2022-12-08T03:46:59.533Z,100.00
2022-12-08T03:49:27.416Z,100.00
2022-12-08T03:51:54.916Z,100.00
2022-12-08T03:54:22.477Z,100.00
2022-12-08T03:56:50.295Z,100.00
2022-12-08T03:59:17.892Z,100.00
2022-12-08T04:01:45.568Z,100.00
2022-12-08T04:04:13.312Z,100.00
2022-12-08T04:06:40.939Z,100.00
2022-12-08T04:09:08.440Z,100.00
2022-12-08T04:11:41.152Z,100.00
2022-12-08T04:14:08.864Z,100.00
2022-12-08T04:16:36.758Z,100.00
2022-12-08T04:19:04.283Z,100.00
2022-12-08T04:21:31.813Z,100.00
2022-12-08T04:24:01.421Z,100.00
2022-12-08T04:26:29.416Z,100.00
2022-12-08T04:28:57.123Z,100.00
2022-12-08T04:31:24.928Z,100.00
2022-12-08T04:33:52.483Z,100.00
2022-12-08T04:36:20.056Z,100.00
2022-12-08T04:38:47.813Z,100.00
2022-12-08T04:41:15.348Z,100.00
2022-12-08T04:43:44.423Z,100.00
2022-12-08T04:46:12.298Z,100.00
2022-12-08T04:48:40.683Z,100.00
2022-12-08T04:51:17.848Z,100.00
2022-12-08T04:53:47.088Z,100.00
2022-12-08T04:56:19.159Z,100.00
2022-12-08T04:58:47.365Z,100.00
2022-12-08T05:01:15.068Z,100.00
2022-12-08T05:03:42.625Z,100.00
2022-12-08T05:06:13.418Z,100.00
2022-12-08T05:08:42.084Z,100.00
2022-12-08T05:11:12.073Z,100.00
2022-12-08T05:13:39.977Z,100.00
2022-12-08T05:16:10.390Z,100.00
2022-12-08T05:18:39.548Z,100.00
2022-12-08T05:21:07.811Z,100.00
2022-12-08T05:23:35.687Z,100.00
2022-12-08T05:26:03.610Z,99.84
2022-12-08T05:28:46.860Z,99.53
2022-12-08T05:31:16.334Z,99.75
2022-12-08T05:33:44.928Z,99.72
2022-12-08T05:36:14.899Z,99.65
2022-12-08T05:38:43.898Z,100.00
2022-12-08T05:41:16.522Z,99.50
2022-12-08T05:43:44.650Z,99.47
2022-12-08T05:46:12.713Z,99.04
2022-12-08T05:48:41.028Z,99.13
2022-12-08T05:51:18.011Z,99.80
2022-12-08T05:53:46.675Z,99.62
2022-12-08T05:56:14.879Z,99.91
2022-12-08T05:58:42.832Z,99.47
2022-12-08T06:01:30.508Z,99.20
2022-12-08T06:04:00.492Z,99.63
2022-12-08T06:06:29.514Z,100.00
2022-12-08T06:08:57.281Z,100.00
2022-12-08T06:11:27.988Z,100.00
2022-12-08T06:13:57.057Z,99.66
2022-12-08T06:16:26.958Z,100.00
2022-12-08T06:18:55.231Z,100.00
2022-12-08T06:21:22.814Z,100.00
2022-12-08T06:23:52.610Z,100.00
2022-12-08T06:26:21.335Z,100.00
2022-12-08T06:28:49.495Z,99.57
2022-12-08T06:31:22.935Z,99.48
2022-12-08T06:33:51.333Z,100.00
2022-12-08T06:36:21.290Z,100.00
2022-12-08T06:38:48.945Z,100.00
2022-12-08T06:41:17.513Z,99.99
2022-12-08T06:43:46.013Z,98.67
2022-12-08T06:46:16.319Z,98.92
2022-12-08T06:48:44.662Z,98.48
2022-12-08T06:51:15.866Z,98.94
2022-12-08T06:53:44.893Z,99.33
2022-12-08T06:56:16.885Z,98.59
2022-12-08T06:58:50.590Z,99.61
2022-12-08T07:01:21.977Z,99.41
2022-12-08T07:03:50.000Z,98.94
2022-12-08T07:06:21.667Z,98.99
2022-12-08T07:08:49.689Z,99.06
2022-12-08T07:11:21.551Z,98.41
2022-12-08T07:13:50.573Z,98.74
2022-12-08T07:16:18.226Z,99.19
2022-12-08T07:18:45.715Z,98.26
2022-12-08T07:21:17.141Z,98.30
2022-12-08T07:23:54.310Z,97.82
2022-12-08T07:26:25.363Z,97.26
2022-12-08T07:28:52.834Z,97.03
2022-12-08T07:31:22.997Z,98.35
2022-12-08T07:33:51.599Z,97.83
2022-12-08T07:36:19.323Z,98.24
2022-12-08T07:38:47.285Z,98.61
2022-12-08T07:41:17.300Z,99.25
2022-12-08T07:43:45.306Z,99.38
2022-12-08T07:46:14.306Z,99.48
2022-12-08T07:48:42.732Z,99.12
2022-12-08T07:51:13.720Z,97.90
2022-12-08T07:53:45.304Z,98.60
2022-12-08T07:56:15.388Z,97.93
2022-12-08T07:58:42.924Z,97.63
2022-12-08T08:01:26.344Z,96.99
2022-12-08T08:03:56.363Z,96.85
2022-12-08T08:06:24.433Z,96.70
2022-12-08T08:08:51.912Z,97.80
2022-12-08T08:11:21.562Z,97.97
2022-12-08T08:13:52.738Z,97.27
2022-12-08T08:16:21.232Z,96.39
2022-12-08T08:18:51.040Z,96.58
2022-12-08T08:24:07.788Z,97.83
2022-12-08T08:26:37.357Z,96.84
2022-12-08T08:29:05.296Z,97.01
2022-12-08T08:31:33.191Z,97.26
2022-12-08T08:34:05.036Z,97.16
2022-12-08T08:36:33.136Z,96.75
2022-12-08T08:39:00.648Z,97.39
2022-12-08T08:41:28.852Z,96.69
2022-12-08T08:43:56.697Z,96.32
2022-12-08T08:46:24.292Z,96.01
2022-12-08T08:48:51.764Z,95.73
2022-12-08T08:51:19.481Z,95.81
2022-12-08T08:53:46.961Z,95.62
2022-12-08T08:56:19.308Z,95.29
2022-12-08T08:58:49.599Z,94.65
2022-12-08T09:01:19.918Z,93.67
2022-12-08T09:03:48.776Z,92.80
2022-12-08T09:06:17.072Z,92.30
2022-12-08T09:08:45.568Z,92.71
2022-12-08T09:11:13.581Z,92.70
2022-12-08T09:13:42.577Z,92.38
2022-12-08T09:16:11.838Z,91.41
2022-12-08T09:18:39.646Z,90.84
2022-12-08T09:21:15.020Z,90.65
2022-12-08T09:23:44.078Z,90.85
2022-12-08T09:26:11.972Z,88.78
2022-12-08T09:28:39.329Z,89.74
2022-12-08T09:31:07.345Z,88.40
2022-12-08T09:33:34.860Z,87.03
2022-12-08T09:36:04.221Z,87.60
2022-12-08T09:38:32.448Z,87.25
2022-12-08T09:41:03.133Z,87.21
2022-12-08T09:43:42.716Z,86.85
2022-12-08T09:46:13.664Z,85.06
2022-12-08T09:48:51.879Z,84.10
2022-12-08T09:51:19.831Z,84.68
2022-12-08T09:53:52.192Z,84.54
2022-12-08T09:56:27.083Z,84.90
2022-12-08T09:59:05.816Z,83.97
2022-12-08T10:01:41.826Z,82.73
2022-12-08T10:04:35.065Z,81.41
2022-12-08T10:07:24.032Z,81.37
2022-12-08T10:10:40.414Z,82.12
2022-12-08T10:13:26.569Z,81.39
2022-12-08T10:16:21.992Z,80.77
2022-12-08T10:19:10.237Z,80.23
2022-12-08T10:21:39.906Z,79.71
2022-12-08T10:24:37.499Z,80.08
2022-12-08T10:27:10.600Z,80.48
2022-12-08T10:29:40.069Z,80.91
2022-12-08T10:32:22.876Z,80.59
2022-12-08T10:35:02.270Z,80.23
2022-12-08T10:37:30.065Z,80.31
2022-12-08T10:40:11.802Z,79.70
2022-12-08T10:42:59.967Z,79.19
2022-12-08T10:45:38.488Z,79.06
2022-12-08T10:48:15.995Z,78.81
2022-12-08T10:50:50.480Z,78.39
2022-12-08T10:53:25.228Z,78.52
2022-12-08T10:56:05.153Z,77.63
2022-12-08T10:58:42.886Z,76.86
2022-12-08T11:01:19.819Z,76.47
2022-12-08T11:04:05.295Z,75.41
2022-12-08T11:06:36.161Z,75.60
2022-12-08T11:09:23.887Z,76.49
2022-12-08T11:11:56.953Z,77.19
2022-12-08T11:14:30.726Z,76.93
2022-12-08T11:17:13.588Z,78.05
2022-12-08T11:19:44.424Z,79.28
2022-12-08T11:22:22.131Z,78.64
2022-12-08T11:25:03.567Z,78.57
2022-12-08T11:27:33.723Z,79.50
2022-12-08T11:30:04.092Z,79.52
2022-12-08T11:32:34.748Z,79.61
2022-12-08T11:35:06.463Z,79.69
2022-12-08T11:37:40.244Z,78.78
2022-12-08T11:56:03.825Z,79.99
2022-12-08T11:58:41.207Z,79.94
2022-12-08T12:01:39.405Z,81.04
2022-12-08T12:04:18.980Z,80.63
2022-12-08T12:07:08.413Z,81.56
2022-12-08T12:09:42.100Z,82.06
2022-12-08T12:12:28.990Z,81.84
2022-12-08T12:15:28.376Z,82.09
2022-12-08T12:18:16.314Z,81.38
2022-12-08T12:20:59.160Z,81.49
2022-12-08T12:23:47.985Z,81.42
2022-12-08T12:26:23.560Z,81.54
2022-12-08T12:28:56.974Z,81.55
2022-12-08T12:31:50.992Z,82.06
2022-12-08T12:34:25.501Z,82.44
2022-12-08T12:37:10.279Z,82.63
2022-12-08T12:39:53.439Z,82.16
2022-12-08T12:42:41.628Z,81.79
2022-12-08T12:45:18.158Z,81.54
2022-12-08T12:47:56.383Z,81.30
2022-12-08T12:50:33.258Z,81.65
2022-12-08T12:53:09.136Z,82.50
2022-12-08T12:55:45.993Z,83.14
2022-12-08T12:58:27.933Z,83.52
2022-12-08T13:01:10.656Z,82.92
2022-12-08T13:03:45.790Z,83.11
2022-12-08T13:06:15.540Z,81.62
2022-12-08T13:08:52.023Z,80.29
2022-12-08T13:11:19.695Z,79.98
2022-12-08T13:14:05.781Z,81.15
2022-12-08T13:16:37.739Z,81.91
2022-12-08T13:19:13.999Z,82.31
2022-12-08T13:21:42.427Z,82.77
2022-12-08T13:24:10.138Z,81.92
2022-12-08T13:26:45.674Z,81.50
2022-12-08T13:29:15.423Z,80.53
2022-12-08T13:31:51.081Z,80.93
2022-12-08T13:34:48.636Z,80.53
2022-12-08T13:37:26.891Z,79.57
2022-12-08T13:40:10.570Z,80.08
2022-12-08T13:42:47.147Z,80.06
2022-12-08T13:45:48.765Z,80.13
2022-12-08T13:49:13.616Z,80.28
2022-12-08T13:57:28.745Z,82.27
2022-12-08T14:00:01.743Z,82.33
2022-12-08T14:02:47.699Z,82.99
2022-12-08T14:05:20.373Z,83.19
2022-12-08T14:07:54.313Z,83.99
2022-12-08T14:10:28.429Z,84.99
2022-12-08T14:13:00.671Z,85.38
2022-12-08T14:15:34.026Z,86.10
2022-12-08T14:18:04.717Z,85.72
2022-12-08T14:20:51.860Z,85.55
2022-12-08T14:23:21.880Z,85.27
2022-12-08T14:25:50.288Z,85.88
2022-12-08T14:28:18.472Z,85.98
2022-12-08T14:30:48.722Z,85.62
2022-12-08T14:33:17.478Z,84.89
2022-12-08T14:35:52.139Z,84.64
2022-12-08T14:38:21.620Z,84.48
2022-12-08T14:41:06.964Z,84.99
2022-12-08T14:43:35.076Z,85.17
2022-12-08T14:46:06.381Z,86.17
2022-12-08T14:48:33.948Z,86.42
2022-12-08T14:51:18.933Z,87.38
2022-12-08T14:53:54.659Z,88.09
2022-12-08T14:56:26.852Z,89.01
2022-12-08T14:59:09.369Z,89.96
2022-12-08T15:01:37.554Z,90.34
2022-12-08T15:04:14.700Z,90.87
2022-12-08T15:07:00.805Z,91.47
2022-12-08T15:09:41.012Z,91.98
2022-12-08T15:12:14.849Z,92.19
2022-12-08T15:14:55.939Z,91.56
2022-12-08T15:18:06.021Z,90.85
2022-12-08T15:20:44.211Z,91.81
2022-12-08T15:23:26.577Z,92.36
2022-12-08T15:25:54.981Z,92.37
2022-12-08T15:28:30.099Z,92.03
2022-12-08T15:30:58.712Z,91.83
2022-12-08T15:33:27.800Z,91.68
2022-12-08T15:35:55.305Z,92.00
2022-12-08T15:38:31.407Z,92.18
2022-12-08T15:40:59.122Z,92.47
2022-12-08T15:43:27.487Z,92.24
2022-12-08T15:45:59.603Z,93.42
2022-12-08T15:48:29.884Z,94.20
2022-12-08T15:50:57.705Z,94.92
2022-12-08T15:53:25.728Z,95.54
2022-12-08T15:56:25.657Z,95.74
2022-12-08T15:58:57.841Z,96.23
2022-12-08T16:01:26.688Z,96.30
2022-12-08T16:09:43.716Z,97.41
2022-12-08T16:13:26.885Z,97.74
2022-12-08T16:15:51.256Z,97.84
2022-12-08T16:18:26.012Z,97.92
2022-12-08T16:21:22.743Z,98.32
2022-12-08T16:23:44.199Z,97.98
2022-12-08T16:26:24.389Z,98.42
2022-12-08T16:29:05.308Z,98.78
2022-12-08T16:31:33.436Z,98.24
2022-12-08T16:34:01.073Z,98.37
2022-12-08T16:36:28.498Z,98.51
2022-12-08T16:38:56.418Z,99.29
2022-12-08T16:41:43.375Z,99.43
2022-12-08T16:44:11.188Z,100.00
2022-12-08T16:46:39.219Z,100.00
2022-12-08T16:49:09.176Z,100.00
2022-12-08T16:51:36.929Z,100.00
2022-12-08T16:54:04.832Z,100.00
2022-12-08T16:56:33.648Z,100.00
2022-12-08T16:59:02.386Z,100.00
2022-12-08T17:01:31.493Z,100.00
2022-12-08T17:04:30.905Z,100.00
2022-12-08T17:06:47.361Z,100.00
2022-12-08T17:09:14.821Z,100.00
2022-12-08T17:11:43.549Z,100.00
2022-12-08T17:14:12.667Z,100.00
2022-12-08T17:16:40.340Z,100.00
2022-12-08T17:19:08.401Z,100.00
2022-12-08T17:21:36.365Z,100.00
2022-12-08T17:24:04.616Z,100.00
2022-12-08T17:26:32.256Z,100.00
2022-12-08T17:29:02.577Z,100.00
2022-12-08T17:31:32.360Z,100.00
2022-12-08T17:34:05.809Z,100.00
2022-12-08T17:36:33.464Z,100.00
2022-12-08T17:39:01.693Z,100.00
2022-12-08T17:41:29.966Z,100.00
2022-12-08T17:43:57.484Z,100.00
2022-12-08T17:46:25.617Z,100.00
2022-12-08T17:48:53.428Z,100.00
2022-12-08T17:51:21.108Z,100.00
2022-12-08T17:53:48.939Z,100.00
2022-12-08T17:56:20.993Z,100.00
2022-12-08T17:58:54.293Z,100.00
2022-12-08T18:01:23.696Z,100.00
2022-12-08T18:03:51.947Z,100.00
2022-12-08T18:06:20.082Z,100.00
2022-12-08T18:08:48.010Z,100.00
2022-12-08T18:11:18.887Z,100.00
2022-12-08T18:13:48.923Z,100.00
2022-12-08T18:16:19.420Z,100.00
2022-12-08T18:18:47.688Z,100.00
2022-12-08T18:21:22.818Z,100.00
2022-12-08T18:23:51.735Z,100.00
2022-12-08T18:26:20.529Z,100.00
2022-12-08T18:28:48.493Z,100.00
2022-12-08T18:31:20.060Z,100.00
2022-12-08T18:33:49.343Z,100.00
2022-12-08T18:36:23.019Z,100.00
2022-12-08T18:38:51.557Z,100.00
2022-12-08T18:41:24.513Z,100.00
2022-12-08T18:43:53.448Z,100.00
2022-12-08T18:46:21.825Z,100.00
2022-12-08T18:48:50.632Z,100.00
2022-12-08T18:51:21.316Z,100.00
2022-12-08T18:53:50.899Z,100.00
2022-12-08T18:56:27.182Z,100.00
2022-12-08T18:59:02.824Z,100.00
2022-12-08T19:01:33.127Z,100.00
2022-12-08T19:04:27.225Z,100.00
2022-12-08T19:06:52.452Z,100.00
2022-12-08T19:09:20.812Z,100.00
2022-12-08T19:11:48.455Z,100.00
2022-12-08T19:14:16.129Z,100.00
2022-12-08T19:16:44.019Z,100.00
2022-12-08T19:19:12.149Z,100.00
2022-12-08T19:21:45.960Z,100.00
2022-12-08T19:24:14.506Z,100.00
2022-12-08T19:26:42.610Z,100.00
2022-12-08T19:29:10.667Z,100.00
2022-12-08T19:31:39.692Z,100.00
2022-12-08T19:34:09.290Z,100.00
2022-12-08T19:36:42.335Z,100.00
2022-12-08T19:39:35.177Z,100.00
2022-12-08T19:42:37.800Z,100.00
2022-12-08T19:45:12.203Z,100.00
2022-12-08T19:47:40.503Z,100.00
2022-12-08T19:50:29.800Z,100.00
2022-12-08T19:52:58.070Z,100.00
2022-12-08T19:55:26.743Z,100.00
2022-12-08T19:57:56.659Z,100.00
2022-12-08T20:00:24.342Z,100.00
2022-12-08T20:02:52.434Z,100.00
2022-12-08T20:05:20.204Z,100.00
2022-12-08T20:07:48.105Z,100.00
2022-12-08T20:10:21.941Z,100.00
2022-12-08T20:12:49.736Z,100.00
2022-12-08T20:15:17.693Z,100.00
2022-12-08T20:17:45.465Z,100.00
2022-12-08T20:20:14.141Z,100.00
2022-12-08T20:22:42.944Z,100.00
2022-12-08T20:25:13.087Z,100.00
2022-12-08T20:27:41.383Z,100.00
2022-12-08T20:30:16.446Z,100.00
2022-12-08T20:32:45.589Z,100.00
2022-12-08T20:35:14.980Z,100.00
2022-12-08T20:37:42.900Z,100.00
2022-12-08T20:40:10.712Z,100.00
2022-12-08T20:42:38.723Z,100.00
2022-12-08T20:45:09.141Z,100.00
2022-12-08T20:47:37.751Z,100.00
2022-12-08T20:50:07.112Z,100.00
2022-12-08T20:52:35.117Z,100.00
2022-12-08T20:55:02.780Z,100.00
2022-12-08T20:57:30.902Z,100.00
2022-12-08T20:59:58.447Z,100.00
2022-12-08T21:02:27.133Z,100.00
2022-12-08T21:04:55.327Z,100.00
2022-12-08T21:07:23.010Z,100.00
2022-12-08T21:09:50.600Z,100.00
2022-12-08T21:12:18.801Z,100.00
2022-12-08T21:14:46.391Z,100.00
2022-12-08T21:17:14.100Z,100.00
2022-12-08T21:19:42.192Z,100.00
2022-12-08T21:22:09.838Z,100.00
2022-12-08T21:24:37.888Z,100.00
2022-12-08T21:27:05.892Z,100.00
2022-12-08T21:29:33.656Z,100.00
2022-12-08T21:32:01.359Z,100.00
2022-12-08T21:34:31.774Z,100.00
2022-12-08T21:37:00.344Z,100.00
2022-12-08T21:39:27.896Z,100.00
2022-12-08T21:42:14.121Z,100.00
2022-12-08T21:44:41.517Z,100.00
2022-12-08T21:47:09.507Z,100.00
2022-12-08T21:49:37.369Z,100.00
2022-12-08T21:52:05.259Z,100.00
2022-12-08T21:54:33.094Z,100.00
2022-12-08T21:57:00.703Z,100.00
2022-12-08T21:59:28.251Z,100.00
2022-12-08T22:01:56.398Z,100.00
2022-12-08T22:04:25.306Z,100.00
2022-12-08T22:06:52.993Z,100.00
2022-12-08T22:09:20.552Z,100.00
2022-12-08T22:11:48.582Z,100.00
2022-12-08T22:14:16.167Z,100.00
2022-12-08T22:16:44.366Z,100.00
2022-12-08T22:19:12.664Z,100.00
2022-12-08T22:21:43.219Z,100.00
2022-12-08T22:24:10.700Z,100.00
2022-12-08T22:26:38.545Z,100.00
2022-12-08T22:29:06.361Z,100.00
2022-12-08T22:31:34.087Z,100.00
2022-12-08T22:34:01.811Z,100.00
2022-12-08T22:36:29.838Z,100.00
2022-12-08T22:38:57.225Z,100.00
2022-12-08T22:41:24.947Z,100.00
2022-12-08T22:43:52.458Z,100.00
2022-12-08T22:46:21.524Z,100.00
2022-12-08T22:48:50.102Z,100.00
2022-12-08T22:51:18.245Z,100.00
2022-12-08T22:53:46.679Z,100.00
2022-12-08T22:56:16.006Z,100.00
2022-12-08T22:58:46.971Z,100.00
2022-12-08T23:01:30.017Z,100.00
2022-12-08T23:03:58.786Z,100.00
2022-12-08T23:06:28.676Z,100.00
2022-12-08T23:08:56.764Z,100.00
2022-12-08T23:11:27.868Z,100.00
2022-12-08T23:13:59.920Z,100.00
2022-12-08T23:16:28.101Z,100.00
2022-12-08T23:18:56.096Z,100.00
2022-12-08T23:21:23.571Z,100.00
2022-12-08T23:23:51.120Z,100.00
2022-12-08T23:26:24.963Z,100.00
2022-12-08T23:28:52.800Z,100.00
2022-12-08T23:31:20.946Z,100.00
2022-12-08T23:33:48.769Z,100.00
2022-12-08T23:36:17.844Z,100.00
2022-12-08T23:38:46.182Z,100.00
2022-12-08T23:41:15.691Z,100.00
2022-12-08T23:43:51.311Z,100.00
2022-12-08T23:46:21.295Z,100.00
2022-12-08T23:48:50.156Z,100.00
2022-12-08T23:51:18.430Z,100.00
2022-12-08T23:53:46.410Z,100.00
2022-12-08T23:56:16.341Z,100.00
2022-12-08T23:58:44.328Z,100.00
